LGRD weather

Maritsa Airport
Rodes Island, Dodecanese, Greece

Public forecast

Using degrees Celsius for public forecast. Weather courtesy of forecast.io.

Closest aviation weather report (METAR) to Maritsa Airport

Closest report is Diagoras Airport, 1.7 nm (3.2 km) NW. Retrieved 2019/12/10 16:20 UTC (0 seconds ago):

LGRP 101620Z 10005KT 070V150 8000 -RA FEW020TCU SCT025 17/09 Q1010 RERA

Closest aviation forecast (TAF) to Maritsa Airport

Closest forecast is Diagoras Airport, 1.7 nm (3.2 km) NW. Retrieved 2019/12/10 12:12 UTC (4 hours ago):

TAF LGRP 101100Z 1012/1112 16012KT 9999 SCT018 PROB40 TEMPO 1012/1112 5000 RA SCT018 BKN025 PROB40 TEMPO 1015/1112 3000 TSRA SCT016 FEW018CB BKN020 BECMG 1018/1020 16015G25KT